sensor_id;sensor_type;location;lat;lon;timestamp;P1;durP1;ratioP1;P2;durP2;ratioP2
20022;SDS011;10172;42.054;24.546;2023-03-14T00:02:18;5.63;;;3.28;;
20022;SDS011;10172;42.054;24.546;2023-03-14T00:04:44;5.85;;;3.33;;
20022;SDS011;10172;42.054;24.546;2023-03-14T00:07:10;7.18;;;3.45;;
20022;SDS011;10172;42.054;24.546;2023-03-14T00:09:36;5.30;;;2.90;;
20022;SDS011;10172;42.054;24.546;2023-03-14T00:12:02;4.70;;;2.95;;
20022;SDS011;10172;42.054;24.546;2023-03-14T00:14:28;4.22;;;2.60;;
20022;SDS011;10172;42.054;24.546;2023-03-14T00:16:54;3.22;;;2.67;;
20022;SDS011;10172;42.054;24.546;2023-03-14T00:19:20;7.90;;;3.10;;
20022;SDS011;10172;42.054;24.546;2023-03-14T00:21:46;3.88;;;2.63;;
20022;SDS011;10172;42.054;24.546;2023-03-14T00:24:12;4.35;;;3.00;;
20022;SDS011;10172;42.054;24.546;2023-03-14T00:26:37;6.10;;;3.60;;
20022;SDS011;10172;42.054;24.546;2023-03-14T00:29:03;4.78;;;3.22;;
20022;SDS011;10172;42.054;24.546;2023-03-14T00:31:28;6.43;;;3.72;;
20022;SDS011;10172;42.054;24.546;2023-03-14T00:33:54;6.55;;;3.47;;
20022;SDS011;10172;42.054;24.546;2023-03-14T00:36:20;7.80;;;3.80;;
20022;SDS011;10172;42.054;24.546;2023-03-14T00:38:47;6.28;;;2.83;;
20022;SDS011;10172;42.054;24.546;2023-03-14T00:41:16;4.97;;;3.22;;
20022;SDS011;10172;42.054;24.546;2023-03-14T00:43:43;6.57;;;2.90;;
20022;SDS011;10172;42.054;24.546;2023-03-14T00:46:10;6.50;;;3.17;;
20022;SDS011;10172;42.054;24.546;2023-03-14T00:48:35;4.30;;;2.90;;
20022;SDS011;10172;42.054;24.546;2023-03-14T00:51:02;5.60;;;2.95;;
20022;SDS011;10172;42.054;24.546;2023-03-14T00:53:28;4.75;;;3.10;;
20022;SDS011;10172;42.054;24.546;2023-03-14T00:55:54;19.88;;;15.07;;
20022;SDS011;10172;42.054;24.546;2023-03-14T00:58:19;6.30;;;3.05;;
20022;SDS011;10172;42.054;24.546;2023-03-14T01:00:45;5.53;;;2.90;;
20022;SDS011;10172;42.054;24.546;2023-03-14T01:03:12;3.88;;;2.30;;
20022;SDS011;10172;42.054;24.546;2023-03-14T01:05:39;4.13;;;2.92;;
20022;SDS011;10172;42.054;24.546;2023-03-14T01:08:05;4.57;;;3.08;;
20022;SDS011;10172;42.054;24.546;2023-03-14T01:10:32;7.15;;;3.58;;
20022;SDS011;10172;42.054;24.546;2023-03-14T01:12:58;8.70;;;4.82;;
20022;SDS011;10172;42.054;24.546;2023-03-14T01:15:23;9.18;;;4.55;;
20022;SDS011;10172;42.054;24.546;2023-03-14T01:17:49;7.10;;;3.40;;
20022;SDS011;10172;42.054;24.546;2023-03-14T01:20:14;5.38;;;3.63;;
20022;SDS011;10172;42.054;24.546;2023-03-14T01:22:40;5.03;;;3.35;;
20022;SDS011;10172;42.054;24.546;2023-03-14T01:25:08;5.03;;;3.25;;
20022;SDS011;10172;42.054;24.546;2023-03-14T01:27:34;7.38;;;2.88;;
20022;SDS011;10172;42.054;24.546;2023-03-14T01:30:00;4.82;;;3.30;;
20022;SDS011;10172;42.054;24.546;2023-03-14T01:32:26;5.47;;;2.83;;
20022;SDS011;10172;42.054;24.546;2023-03-14T01:34:51;4.30;;;2.90;;
20022;SDS011;10172;42.054;24.546;2023-03-14T01:37:17;7.15;;;3.08;;
20022;SDS011;10172;42.054;24.546;2023-03-14T01:39:42;5.45;;;2.90;;
20022;SDS011;10172;42.054;24.546;2023-03-14T01:42:08;5.55;;;3.50;;
20022;SDS011;10172;42.054;24.546;2023-03-14T01:44:50;7.88;;;2.70;;
20022;SDS011;10172;42.054;24.546;2023-03-14T01:47:20;5.13;;;3.28;;
20022;SDS011;10172;42.054;24.546;2023-03-14T01:49:47;6.40;;;3.25;;
20022;SDS011;10172;42.054;24.546;2023-03-14T01:54:46;4.05;;;3.00;;
20022;SDS011;10172;42.054;24.546;2023-03-14T01:57:17;5.43;;;3.20;;
20022;SDS011;10172;42.054;24.546;2023-03-14T01:59:48;4.47;;;3.20;;
20022;SDS011;10172;42.054;24.546;2023-03-14T02:02:40;5.70;;;2.35;;
20022;SDS011;10172;42.054;24.546;2023-03-14T02:05:08;3.55;;;2.30;;
20022;SDS011;10172;42.054;24.546;2023-03-14T02:07:39;3.40;;;2.15;;
20022;SDS011;10172;42.054;24.546;2023-03-14T02:10:12;5.68;;;2.83;;
20022;SDS011;10172;42.054;24.546;2023-03-14T02:12:39;4.93;;;2.35;;
20022;SDS011;10172;42.054;24.546;2023-03-14T02:15:05;3.80;;;2.53;;
20022;SDS011;10172;42.054;24.546;2023-03-14T02:17:31;6.03;;;3.17;;
20022;SDS011;10172;42.054;24.546;2023-03-14T02:22:35;5.38;;;2.75;;
20022;SDS011;10172;42.054;24.546;2023-03-14T02:25:17;3.80;;;2.70;;
20022;SDS011;10172;42.054;24.546;2023-03-14T02:27:59;4.45;;;2.63;;
20022;SDS011;10172;42.054;24.546;2023-03-14T02:30:27;4.38;;;2.88;;
20022;SDS011;10172;42.054;24.546;2023-03-14T02:32:57;4.55;;;2.90;;
20022;SDS011;10172;42.054;24.546;2023-03-14T02:35:34;4.57;;;2.47;;
20022;SDS011;10172;42.054;24.546;2023-03-14T02:41:04;4.00;;;2.40;;
20022;SDS011;10172;42.054;24.546;2023-03-14T02:43:30;2.70;;;2.00;;
20022;SDS011;10172;42.054;24.546;2023-03-14T02:45:56;4.47;;;2.13;;
20022;SDS011;10172;42.054;24.546;2023-03-14T02:48:28;3.60;;;2.33;;
20022;SDS011;10172;42.054;24.546;2023-03-14T02:50:56;1.95;;;1.75;;
20022;SDS011;10172;42.054;24.546;2023-03-14T02:53:25;7.93;;;2.35;;
20022;SDS011;10172;42.054;24.546;2023-03-14T02:55:55;5.38;;;2.53;;
20022;SDS011;10172;42.054;24.546;2023-03-14T02:58:20;2.92;;;1.95;;
20022;SDS011;10172;42.054;24.546;2023-03-14T03:00:46;6.13;;;2.60;;
20022;SDS011;10172;42.054;24.546;2023-03-14T03:03:13;2.60;;;1.67;;
20022;SDS011;10172;42.054;24.546;2023-03-14T03:05:38;4.88;;;2.08;;
20022;SDS011;10172;42.054;24.546;2023-03-14T03:08:04;1.58;;;1.48;;
20022;SDS011;10172;42.054;24.546;2023-03-14T03:10:29;5.32;;;2.20;;
20022;SDS011;10172;42.054;24.546;2023-03-14T03:12:56;4.43;;;2.38;;
20022;SDS011;10172;42.054;24.546;2023-03-14T03:15:21;5.70;;;2.75;;
20022;SDS011;10172;42.054;24.546;2023-03-14T03:17:47;5.13;;;2.60;;
20022;SDS011;10172;42.054;24.546;2023-03-14T03:20:13;6.00;;;2.47;;
20022;SDS011;10172;42.054;24.546;2023-03-14T03:22:38;6.13;;;2.75;;
20022;SDS011;10172;42.054;24.546;2023-03-14T03:25:04;2.55;;;2.33;;
20022;SDS011;10172;42.054;24.546;2023-03-14T03:27:35;3.90;;;2.28;;
20022;SDS011;10172;42.054;24.546;2023-03-14T03:30:02;5.75;;;2.55;;
20022;SDS011;10172;42.054;24.546;2023-03-14T03:32:30;4.25;;;2.20;;
20022;SDS011;10172;42.054;24.546;2023-03-14T03:34:55;2.22;;;1.83;;
20022;SDS011;10172;42.054;24.546;2023-03-14T03:37:21;2.50;;;1.98;;
20022;SDS011;10172;42.054;24.546;2023-03-14T03:39:46;2.53;;;1.85;;
20022;SDS011;10172;42.054;24.546;2023-03-14T03:42:12;2.17;;;1.83;;
20022;SDS011;10172;42.054;24.546;2023-03-14T03:44:37;2.90;;;2.00;;
20022;SDS011;10172;42.054;24.546;2023-03-14T03:47:03;3.13;;;2.22;;
20022;SDS011;10172;42.054;24.546;2023-03-14T03:49:32;2.03;;;1.80;;
20022;SDS011;10172;42.054;24.546;2023-03-14T03:51:58;2.85;;;2.08;;
20022;SDS011;10172;42.054;24.546;2023-03-14T03:54:24;3.58;;;2.92;;
20022;SDS011;10172;42.054;24.546;2023-03-14T03:56:50;4.13;;;2.40;;
20022;SDS011;10172;42.054;24.546;2023-03-14T03:59:15;4.35;;;1.90;;
20022;SDS011;10172;42.054;24.546;2023-03-14T04:01:41;3.97;;;2.10;;
20022;SDS011;10172;42.054;24.546;2023-03-14T04:04:07;4.15;;;2.00;;
20022;SDS011;10172;42.054;24.546;2023-03-14T04:06:32;3.20;;;2.05;;
20022;SDS011;10172;42.054;24.546;2023-03-14T04:08:57;5.68;;;3.22;;
20022;SDS011;10172;42.054;24.546;2023-03-14T04:11:23;2.63;;;1.70;;
20022;SDS011;10172;42.054;24.546;2023-03-14T04:13:49;1.63;;;1.52;;
20022;SDS011;10172;42.054;24.546;2023-03-14T04:16:16;3.25;;;1.73;;
20022;SDS011;10172;42.054;24.546;2023-03-14T04:18:43;3.55;;;2.15;;
20022;SDS011;10172;42.054;24.546;2023-03-14T04:21:09;0.98;;;0.95;;
20022;SDS011;10172;42.054;24.546;2023-03-14T04:23:35;3.42;;;2.03;;
20022;SDS011;10172;42.054;24.546;2023-03-14T04:26:00;2.80;;;1.83;;
20022;SDS011;10172;42.054;24.546;2023-03-14T04:28:25;3.97;;;1.75;;
20022;SDS011;10172;42.054;24.546;2023-03-14T04:30:51;2.20;;;2.00;;
20022;SDS011;10172;42.054;24.546;2023-03-14T04:33:16;4.07;;;2.00;;
20022;SDS011;10172;42.054;24.546;2023-03-14T04:35:42;2.80;;;2.10;;
20022;SDS011;10172;42.054;24.546;2023-03-14T04:38:09;3.83;;;2.08;;
20022;SDS011;10172;42.054;24.546;2023-03-14T04:40:42;2.50;;;1.85;;
20022;SDS011;10172;42.054;24.546;2023-03-14T04:43:09;3.22;;;2.30;;
20022;SDS011;10172;42.054;24.546;2023-03-14T04:45:36;3.42;;;2.05;;
20022;SDS011;10172;42.054;24.546;2023-03-14T04:48:02;2.78;;;1.77;;
20022;SDS011;10172;42.054;24.546;2023-03-14T04:50:28;3.38;;;1.73;;
20022;SDS011;10172;42.054;24.546;2023-03-14T04:52:53;2.30;;;1.80;;
20022;SDS011;10172;42.054;24.546;2023-03-14T04:55:19;3.03;;;1.67;;
20022;SDS011;10172;42.054;24.546;2023-03-14T04:57:44;2.92;;;1.92;;
20022;SDS011;10172;42.054;24.546;2023-03-14T05:00:10;2.92;;;1.45;;
20022;SDS011;10172;42.054;24.546;2023-03-14T05:02:36;4.10;;;2.28;;
20022;SDS011;10172;42.054;24.546;2023-03-14T05:05:02;2.95;;;1.80;;
20022;SDS011;10172;42.054;24.546;2023-03-14T05:07:27;2.42;;;1.63;;
20022;SDS011;10172;42.054;24.546;2023-03-14T05:09:53;11.07;;;5.55;;
20022;SDS011;10172;42.054;24.546;2023-03-14T05:12:19;3.30;;;1.90;;
20022;SDS011;10172;42.054;24.546;2023-03-14T05:14:45;2.60;;;1.83;;
20022;SDS011;10172;42.054;24.546;2023-03-14T05:17:11;3.55;;;2.10;;
20022;SDS011;10172;42.054;24.546;2023-03-14T05:19:39;2.35;;;1.60;;
20022;SDS011;10172;42.054;24.546;2023-03-14T05:22:05;5.65;;;3.17;;
20022;SDS011;10172;42.054;24.546;2023-03-14T05:24:31;2.67;;;1.63;;
20022;SDS011;10172;42.054;24.546;2023-03-14T05:26:56;26.48;;;9.95;;
20022;SDS011;10172;42.054;24.546;2023-03-14T05:29:22;16.00;;;10.25;;
20022;SDS011;10172;42.054;24.546;2023-03-14T05:31:47;47.95;;;17.33;;
20022;SDS011;10172;42.054;24.546;2023-03-14T05:34:13;54.90;;;19.45;;
20022;SDS011;10172;42.054;24.546;2023-03-14T05:36:38;27.58;;;13.38;;
20022;SDS011;10172;42.054;24.546;2023-03-14T05:39:04;29.27;;;12.35;;
20022;SDS011;10172;42.054;24.546;2023-03-14T05:41:29;26.63;;;12.35;;
20022;SDS011;10172;42.054;24.546;2023-03-14T05:43:55;24.42;;;11.10;;
20022;SDS011;10172;42.054;24.546;2023-03-14T05:46:20;20.35;;;9.05;;
20022;SDS011;10172;42.054;24.546;2023-03-14T05:48:46;20.27;;;10.13;;
20022;SDS011;10172;42.054;24.546;2023-03-14T05:51:11;16.85;;;8.93;;
20022;SDS011;10172;42.054;24.546;2023-03-14T05:53:37;15.77;;;8.60;;
20022;SDS011;10172;42.054;24.546;2023-03-14T05:56:02;18.88;;;9.77;;
20022;SDS011;10172;42.054;24.546;2023-03-14T05:58:28;19.02;;;10.43;;
20022;SDS011;10172;42.054;24.546;2023-03-14T06:00:53;12.82;;;8.32;;
20022;SDS011;10172;42.054;24.546;2023-03-14T06:03:19;20.15;;;8.55;;
20022;SDS011;10172;42.054;24.546;2023-03-14T06:05:45;17.60;;;10.20;;
20022;SDS011;10172;42.054;24.546;2023-03-14T06:08:10;12.20;;;6.05;;
20022;SDS011;10172;42.054;24.546;2023-03-14T06:10:36;12.90;;;5.82;;
20022;SDS011;10172;42.054;24.546;2023-03-14T06:13:02;12.90;;;5.93;;
20022;SDS011;10172;42.054;24.546;2023-03-14T06:15:28;11.40;;;6.13;;
20022;SDS011;10172;42.054;24.546;2023-03-14T06:17:54;16.63;;;7.05;;
20022;SDS011;10172;42.054;24.546;2023-03-14T06:20:21;16.73;;;8.77;;
20022;SDS011;10172;42.054;24.546;2023-03-14T06:22:46;21.45;;;8.85;;
20022;SDS011;10172;42.054;24.546;2023-03-14T06:25:12;22.25;;;11.38;;
20022;SDS011;10172;42.054;24.546;2023-03-14T06:27:37;26.00;;;10.27;;
20022;SDS011;10172;42.054;24.546;2023-03-14T06:30:03;12.45;;;6.18;;
20022;SDS011;10172;42.054;24.546;2023-03-14T06:32:30;13.63;;;7.93;;
20022;SDS011;10172;42.054;24.546;2023-03-14T06:34:55;13.70;;;6.95;;
20022;SDS011;10172;42.054;24.546;2023-03-14T06:37:22;14.23;;;7.22;;
20022;SDS011;10172;42.054;24.546;2023-03-14T06:39:48;16.20;;;7.25;;
20022;SDS011;10172;42.054;24.546;2023-03-14T06:42:13;10.82;;;6.53;;
20022;SDS011;10172;42.054;24.546;2023-03-14T06:44:39;8.77;;;5.68;;
20022;SDS011;10172;42.054;24.546;2023-03-14T06:47:04;10.85;;;5.78;;
20022;SDS011;10172;42.054;24.546;2023-03-14T06:49:30;10.88;;;5.35;;
20022;SDS011;10172;42.054;24.546;2023-03-14T06:51:55;9.50;;;5.30;;
20022;SDS011;10172;42.054;24.546;2023-03-14T06:54:21;9.48;;;4.78;;
20022;SDS011;10172;42.054;24.546;2023-03-14T06:56:46;9.35;;;5.45;;
20022;SDS011;10172;42.054;24.546;2023-03-14T06:59:12;11.98;;;6.85;;
20022;SDS011;10172;42.054;24.546;2023-03-14T07:01:37;11.13;;;6.38;;
20022;SDS011;10172;42.054;24.546;2023-03-14T07:04:03;10.13;;;6.15;;
20022;SDS011;10172;42.054;24.546;2023-03-14T07:06:28;9.32;;;5.63;;
20022;SDS011;10172;42.054;24.546;2023-03-14T07:08:54;8.10;;;5.13;;
20022;SDS011;10172;42.054;24.546;2023-03-14T07:11:20;9.20;;;5.30;;
20022;SDS011;10172;42.054;24.546;2023-03-14T07:13:46;7.93;;;4.88;;
20022;SDS011;10172;42.054;24.546;2023-03-14T07:16:12;9.30;;;4.70;;
20022;SDS011;10172;42.054;24.546;2023-03-14T07:18:37;6.22;;;3.83;;
20022;SDS011;10172;42.054;24.546;2023-03-14T07:21:03;5.30;;;3.15;;
20022;SDS011;10172;42.054;24.546;2023-03-14T07:23:30;5.68;;;3.42;;
20022;SDS011;10172;42.054;24.546;2023-03-14T07:25:55;5.78;;;3.85;;
20022;SDS011;10172;42.054;24.546;2023-03-14T07:28:21;7.32;;;3.90;;
20022;SDS011;10172;42.054;24.546;2023-03-14T07:30:48;7.55;;;3.40;;
20022;SDS011;10172;42.054;24.546;2023-03-14T07:33:14;6.60;;;3.25;;
20022;SDS011;10172;42.054;24.546;2023-03-14T07:35:40;5.55;;;3.20;;
20022;SDS011;10172;42.054;24.546;2023-03-14T07:38:05;6.05;;;4.20;;
20022;SDS011;10172;42.054;24.546;2023-03-14T07:40:31;5.05;;;3.03;;
20022;SDS011;10172;42.054;24.546;2023-03-14T07:42:56;8.45;;;3.30;;
20022;SDS011;10172;42.054;24.546;2023-03-14T07:45:22;7.05;;;4.30;;
20022;SDS011;10172;42.054;24.546;2023-03-14T07:47:48;6.50;;;3.33;;
20022;SDS011;10172;42.054;24.546;2023-03-14T07:50:13;9.35;;;4.38;;
20022;SDS011;10172;42.054;24.546;2023-03-14T07:52:39;7.85;;;3.97;;
20022;SDS011;10172;42.054;24.546;2023-03-14T07:55:04;9.40;;;4.88;;
20022;SDS011;10172;42.054;24.546;2023-03-14T07:57:30;5.95;;;4.22;;
20022;SDS011;10172;42.054;24.546;2023-03-14T07:59:56;7.90;;;4.00;;
20022;SDS011;10172;42.054;24.546;2023-03-14T08:02:21;8.05;;;4.40;;
20022;SDS011;10172;42.054;24.546;2023-03-14T08:04:48;9.98;;;4.28;;
20022;SDS011;10172;42.054;24.546;2023-03-14T08:07:14;5.88;;;4.00;;
20022;SDS011;10172;42.054;24.546;2023-03-14T08:09:40;8.73;;;4.30;;
20022;SDS011;10172;42.054;24.546;2023-03-14T08:12:06;8.45;;;5.15;;
20022;SDS011;10172;42.054;24.546;2023-03-14T08:14:32;12.30;;;5.22;;
20022;SDS011;10172;42.054;24.546;2023-03-14T08:16:57;7.28;;;4.78;;
20022;SDS011;10172;42.054;24.546;2023-03-14T08:19:23;11.05;;;6.15;;
20022;SDS011;10172;42.054;24.546;2023-03-14T08:21:49;7.07;;;4.68;;
20022;SDS011;10172;42.054;24.546;2023-03-14T08:24:15;8.73;;;5.05;;
20022;SDS011;10172;42.054;24.546;2023-03-14T08:26:40;10.10;;;4.95;;
20022;SDS011;10172;42.054;24.546;2023-03-14T08:29:06;7.75;;;4.57;;
20022;SDS011;10172;42.054;24.546;2023-03-14T08:31:33;8.02;;;4.53;;
20022;SDS011;10172;42.054;24.546;2023-03-14T08:34:00;7.03;;;4.70;;
20022;SDS011;10172;42.054;24.546;2023-03-14T08:36:27;9.48;;;4.13;;
20022;SDS011;10172;42.054;24.546;2023-03-14T08:38:52;7.85;;;4.22;;
20022;SDS011;10172;42.054;24.546;2023-03-14T08:41:18;9.10;;;4.65;;
20022;SDS011;10172;42.054;24.546;2023-03-14T08:43:43;7.40;;;4.07;;
20022;SDS011;10172;42.054;24.546;2023-03-14T08:46:09;9.07;;;4.50;;
20022;SDS011;10172;42.054;24.546;2023-03-14T08:48:34;9.18;;;5.10;;
20022;SDS011;10172;42.054;24.546;2023-03-14T08:51:07;11.10;;;4.70;;
20022;SDS011;10172;42.054;24.546;2023-03-14T08:53:33;9.23;;;4.47;;
20022;SDS011;10172;42.054;24.546;2023-03-14T08:55:58;8.57;;;4.82;;
20022;SDS011;10172;42.054;24.546;2023-03-14T08:58:24;10.98;;;4.43;;
20022;SDS011;10172;42.054;24.546;2023-03-14T09:00:49;6.93;;;4.25;;
20022;SDS011;10172;42.054;24.546;2023-03-14T09:03:15;8.48;;;4.53;;
20022;SDS011;10172;42.054;24.546;2023-03-14T09:05:41;7.70;;;4.50;;
20022;SDS011;10172;42.054;24.546;2023-03-14T09:08:06;8.70;;;4.53;;
20022;SDS011;10172;42.054;24.546;2023-03-14T09:10:32;7.68;;;4.75;;
20022;SDS011;10172;42.054;24.546;2023-03-14T09:12:57;7.82;;;4.10;;
20022;SDS011;10172;42.054;24.546;2023-03-14T09:15:23;7.63;;;4.72;;
20022;SDS011;10172;42.054;24.546;2023-03-14T09:17:49;9.40;;;4.53;;
20022;SDS011;10172;42.054;24.546;2023-03-14T09:20:15;9.25;;;5.07;;
20022;SDS011;10172;42.054;24.546;2023-03-14T09:22:40;9.98;;;4.50;;
20022;SDS011;10172;42.054;24.546;2023-03-14T09:25:06;8.45;;;4.00;;
20022;SDS011;10172;42.054;24.546;2023-03-14T09:27:32;11.68;;;4.07;;
20022;SDS011;10172;42.054;24.546;2023-03-14T09:29:58;8.18;;;4.30;;
20022;SDS011;10172;42.054;24.546;2023-03-14T09:32:23;5.22;;;3.63;;
20022;SDS011;10172;42.054;24.546;2023-03-14T09:34:49;5.88;;;3.70;;
20022;SDS011;10172;42.054;24.546;2023-03-14T09:37:14;5.85;;;3.67;;
20022;SDS011;10172;42.054;24.546;2023-03-14T09:39:41;9.32;;;4.20;;
20022;SDS011;10172;42.054;24.546;2023-03-14T09:42:07;6.10;;;3.20;;
20022;SDS011;10172;42.054;24.546;2023-03-14T09:44:39;6.13;;;3.67;;
20022;SDS011;10172;42.054;24.546;2023-03-14T09:47:17;7.40;;;3.88;;
20022;SDS011;10172;42.054;24.546;2023-03-14T09:49:45;6.20;;;3.15;;
20022;SDS011;10172;42.054;24.546;2023-03-14T09:54:47;3.88;;;2.92;;
20022;SDS011;10172;42.054;24.546;2023-03-14T09:57:17;5.68;;;3.42;;
20022;SDS011;10172;42.054;24.546;2023-03-14T09:59:46;6.90;;;4.10;;
20022;SDS011;10172;42.054;24.546;2023-03-14T10:02:15;5.78;;;3.33;;
20022;SDS011;10172;42.054;24.546;2023-03-14T10:05:00;7.20;;;4.03;;
20022;SDS011;10172;42.054;24.546;2023-03-14T10:07:30;6.70;;;3.67;;
20022;SDS011;10172;42.054;24.546;2023-03-14T10:09:56;6.70;;;3.38;;
20022;SDS011;10172;42.054;24.546;2023-03-14T10:12:33;6.68;;;4.05;;
20022;SDS011;10172;42.054;24.546;2023-03-14T10:15:07;6.22;;;3.65;;
20022;SDS011;10172;42.054;24.546;2023-03-14T10:17:38;5.97;;;3.70;;
20022;SDS011;10172;42.054;24.546;2023-03-14T10:20:25;7.53;;;3.35;;
20022;SDS011;10172;42.054;24.546;2023-03-14T10:22:57;9.90;;;4.45;;
20022;SDS011;10172;42.054;24.546;2023-03-14T10:25:28;5.60;;;3.58;;
20022;SDS011;10172;42.054;24.546;2023-03-14T10:27:56;6.05;;;3.80;;
20022;SDS011;10172;42.054;24.546;2023-03-14T10:30:56;9.68;;;4.50;;
20022;SDS011;10172;42.054;24.546;2023-03-14T10:33:24;9.25;;;4.28;;
20022;SDS011;10172;42.054;24.546;2023-03-14T10:38:42;7.53;;;4.18;;
20022;SDS011;10172;42.054;24.546;2023-03-14T10:43:51;8.73;;;4.10;;
20022;SDS011;10172;42.054;24.546;2023-03-14T10:46:19;5.53;;;3.60;;
20022;SDS011;10172;42.054;24.546;2023-03-14T10:48:45;8.90;;;4.05;;
20022;SDS011;10172;42.054;24.546;2023-03-14T10:51:17;5.55;;;4.20;;
20022;SDS011;10172;42.054;24.546;2023-03-14T10:53:44;8.60;;;4.30;;
20022;SDS011;10172;42.054;24.546;2023-03-14T10:56:28;9.25;;;4.78;;
20022;SDS011;10172;42.054;24.546;2023-03-14T10:58:59;7.45;;;4.60;;
20022;SDS011;10172;42.054;24.546;2023-03-14T11:07:14;7.30;;;4.82;;
20022;SDS011;10172;42.054;24.546;2023-03-14T11:14:59;7.35;;;4.47;;
20022;SDS011;10172;42.054;24.546;2023-03-14T11:17:34;11.55;;;5.35;;
20022;SDS011;10172;42.054;24.546;2023-03-14T11:20:13;10.15;;;5.05;;
20022;SDS011;10172;42.054;24.546;2023-03-14T11:23:04;8.60;;;5.05;;
20022;SDS011;10172;42.054;24.546;2023-03-14T11:26:01;8.18;;;5.15;;
20022;SDS011;10172;42.054;24.546;2023-03-14T11:28:50;9.43;;;5.03;;
20022;SDS011;10172;42.054;24.546;2023-03-14T11:31:29;8.68;;;5.13;;
20022;SDS011;10172;42.054;24.546;2023-03-14T11:36:53;7.75;;;4.70;;
20022;SDS011;10172;42.054;24.546;2023-03-14T11:39:21;9.38;;;4.43;;
20022;SDS011;10172;42.054;24.546;2023-03-14T11:41:51;11.98;;;5.68;;
20022;SDS011;10172;42.054;24.546;2023-03-14T11:46:52;10.38;;;4.57;;
20022;SDS011;10172;42.054;24.546;2023-03-14T11:49:27;9.63;;;5.43;;
20022;SDS011;10172;42.054;24.546;2023-03-14T11:51:56;6.47;;;4.05;;
20022;SDS011;10172;42.054;24.546;2023-03-14T11:57:20;7.68;;;4.13;;
20022;SDS011;10172;42.054;24.546;2023-03-14T11:59:50;5.82;;;3.85;;
20022;SDS011;10172;42.054;24.546;2023-03-14T12:07:25;8.30;;;3.10;;
20022;SDS011;10172;42.054;24.546;2023-03-14T12:10:05;5.60;;;3.45;;
20022;SDS011;10172;42.054;24.546;2023-03-14T12:12:30;6.45;;;3.80;;
20022;SDS011;10172;42.054;24.546;2023-03-14T12:15:01;5.18;;;3.13;;
20022;SDS011;10172;42.054;24.546;2023-03-14T12:17:35;5.10;;;2.75;;
20022;SDS011;10172;42.054;24.546;2023-03-14T12:22:42;6.22;;;3.08;;
20022;SDS011;10172;42.054;24.546;2023-03-14T12:25:32;7.05;;;3.50;;
20022;SDS011;10172;42.054;24.546;2023-03-14T12:30:32;4.93;;;3.00;;
20022;SDS011;10172;42.054;24.546;2023-03-14T12:33:10;4.47;;;3.03;;
20022;SDS011;10172;42.054;24.546;2023-03-14T12:35:42;7.32;;;2.92;;
20022;SDS011;10172;42.054;24.546;2023-03-14T12:43:42;8.85;;;3.35;;
20022;SDS011;10172;42.054;24.546;2023-03-14T12:48:43;4.50;;;2.80;;
20022;SDS011;10172;42.054;24.546;2023-03-14T12:54:19;4.43;;;2.72;;
20022;SDS011;10172;42.054;24.546;2023-03-14T12:59:51;4.82;;;2.88;;
20022;SDS011;10172;42.054;24.546;2023-03-14T13:15:40;6.55;;;3.22;;
20022;SDS011;10172;42.054;24.546;2023-03-14T13:21:26;3.45;;;2.35;;
20022;SDS011;10172;42.054;24.546;2023-03-14T13:23:30;5.63;;;3.40;;
20022;SDS011;10172;42.054;24.546;2023-03-14T13:25:58;3.63;;;2.50;;
20022;SDS011;10172;42.054;24.546;2023-03-14T13:28:25;4.28;;;2.60;;
20022;SDS011;10172;42.054;24.546;2023-03-14T13:31:00;8.25;;;2.70;;
20022;SDS011;10172;42.054;24.546;2023-03-14T13:33:27;5.10;;;2.45;;
20022;SDS011;10172;42.054;24.546;2023-03-14T13:35:56;5.10;;;3.20;;
20022;SDS011;10172;42.054;24.546;2023-03-14T13:38:28;7.28;;;2.42;;
20022;SDS011;10172;42.054;24.546;2023-03-14T13:40:55;4.30;;;2.63;;
20022;SDS011;10172;42.054;24.546;2023-03-14T13:43:58;3.35;;;2.30;;
20022;SDS011;10172;42.054;24.546;2023-03-14T13:46:19;4.88;;;2.75;;
20022;SDS011;10172;42.054;24.546;2023-03-14T13:48:48;5.88;;;3.00;;
20022;SDS011;10172;42.054;24.546;2023-03-14T13:51:19;4.53;;;2.45;;
20022;SDS011;10172;42.054;24.546;2023-03-14T13:53:50;6.82;;;3.00;;
20022;SDS011;10172;42.054;24.546;2023-03-14T13:56:20;6.95;;;3.00;;
20022;SDS011;10172;42.054;24.546;2023-03-14T13:58:48;5.50;;;2.90;;
20022;SDS011;10172;42.054;24.546;2023-03-14T14:03:44;3.60;;;2.45;;
20022;SDS011;10172;42.054;24.546;2023-03-14T14:06:26;5.75;;;2.40;;
20022;SDS011;10172;42.054;24.546;2023-03-14T14:09:12;5.28;;;2.72;;
20022;SDS011;10172;42.054;24.546;2023-03-14T14:11:47;3.80;;;2.90;;
20022;SDS011;10172;42.054;24.546;2023-03-14T14:14:21;7.30;;;2.63;;
20022;SDS011;10172;42.054;24.546;2023-03-14T14:16:56;6.70;;;3.10;;
20022;SDS011;10172;42.054;24.546;2023-03-14T14:19:24;6.07;;;3.10;;
20022;SDS011;10172;42.054;24.546;2023-03-14T14:21:52;6.60;;;3.45;;
20022;SDS011;10172;42.054;24.546;2023-03-14T14:24:19;6.68;;;2.97;;
20022;SDS011;10172;42.054;24.546;2023-03-14T14:27:11;7.40;;;3.40;;
20022;SDS011;10172;42.054;24.546;2023-03-14T14:29:37;5.68;;;3.15;;
20022;SDS011;10172;42.054;24.546;2023-03-14T14:34:45;8.32;;;3.00;;
20022;SDS011;10172;42.054;24.546;2023-03-14T14:39:48;5.43;;;2.88;;
20022;SDS011;10172;42.054;24.546;2023-03-14T14:42:18;7.93;;;3.08;;
20022;SDS011;10172;42.054;24.546;2023-03-14T14:44:47;5.47;;;2.28;;
20022;SDS011;10172;42.054;24.546;2023-03-14T14:47:17;7.00;;;2.78;;
20022;SDS011;10172;42.054;24.546;2023-03-14T14:49:46;6.70;;;3.15;;
20022;SDS011;10172;42.054;24.546;2023-03-14T14:52:17;4.40;;;2.88;;
20022;SDS011;10172;42.054;24.546;2023-03-14T14:54:51;9.00;;;3.10;;
20022;SDS011;10172;42.054;24.546;2023-03-14T14:57:33;10.25;;;5.22;;
20022;SDS011;10172;42.054;24.546;2023-03-14T15:00:09;6.60;;;2.90;;
20022;SDS011;10172;42.054;24.546;2023-03-14T15:02:46;9.40;;;3.75;;
20022;SDS011;10172;42.054;24.546;2023-03-14T15:07:42;7.78;;;3.47;;
20022;SDS011;10172;42.054;24.546;2023-03-14T15:10:15;10.60;;;3.38;;
20022;SDS011;10172;42.054;24.546;2023-03-14T15:12:42;9.57;;;3.58;;
20022;SDS011;10172;42.054;24.546;2023-03-14T15:15:08;5.28;;;3.10;;
20022;SDS011;10172;42.054;24.546;2023-03-14T15:17:34;6.10;;;2.90;;
20022;SDS011;10172;42.054;24.546;2023-03-14T15:20:01;6.25;;;2.75;;
20022;SDS011;10172;42.054;24.546;2023-03-14T15:22:29;6.78;;;3.30;;
20022;SDS011;10172;42.054;24.546;2023-03-14T15:24:55;6.20;;;3.72;;
20022;SDS011;10172;42.054;24.546;2023-03-14T15:27:20;5.90;;;3.20;;
20022;SDS011;10172;42.054;24.546;2023-03-14T15:29:46;6.70;;;3.28;;
20022;SDS011;10172;42.054;24.546;2023-03-14T15:32:12;6.72;;;3.00;;
20022;SDS011;10172;42.054;24.546;2023-03-14T15:34:39;7.10;;;2.92;;
20022;SDS011;10172;42.054;24.546;2023-03-14T15:37:05;5.00;;;2.70;;
20022;SDS011;10172;42.054;24.546;2023-03-14T15:39:33;8.23;;;3.22;;
20022;SDS011;10172;42.054;24.546;2023-03-14T15:41:59;6.18;;;3.17;;
20022;SDS011;10172;42.054;24.546;2023-03-14T15:44:25;5.43;;;2.97;;
20022;SDS011;10172;42.054;24.546;2023-03-14T15:46:51;7.35;;;3.08;;
20022;SDS011;10172;42.054;24.546;2023-03-14T15:49:16;8.05;;;3.35;;
20022;SDS011;10172;42.054;24.546;2023-03-14T15:51:41;6.80;;;3.33;;
20022;SDS011;10172;42.054;24.546;2023-03-14T15:54:07;10.10;;;4.03;;
20022;SDS011;10172;42.054;24.546;2023-03-14T15:56:32;8.40;;;3.35;;
20022;SDS011;10172;42.054;24.546;2023-03-14T15:58:58;8.35;;;3.22;;
20022;SDS011;10172;42.054;24.546;2023-03-14T16:01:23;13.07;;;4.32;;
20022;SDS011;10172;42.054;24.546;2023-03-14T16:03:49;16.45;;;8.30;;